createdAt,value
2017-11-28T00:00:32.401Z,94.60
2017-11-28T00:03:00.617Z,95.60
2017-11-28T00:05:28.934Z,95.60
2017-11-28T00:07:56.405Z,96.40
2017-11-28T00:10:24.661Z,97.80
2017-11-28T00:12:52.217Z,97.80
2017-11-28T00:15:20.489Z,98.70
2017-11-28T00:17:49.469Z,99.00
2017-11-28T00:20:17.773Z,99.00
2017-11-28T00:22:46.033Z,99.90
2017-11-28T00:25:13.490Z,99.90
2017-11-28T00:27:40.941Z,99.90
2017-11-28T00:30:08.429Z,99.90
2017-11-28T00:32:35.881Z,99.90
2017-11-28T00:35:04.107Z,99.90
2017-11-28T00:37:31.566Z,99.90
2017-11-28T00:39:59.024Z,99.90
2017-11-28T00:42:26.487Z,99.90
2017-11-28T00:47:46.286Z,99.90
2017-11-28T00:50:15.282Z,99.90
2017-11-28T00:52:42.738Z,99.90
2017-11-28T00:55:11.005Z,99.90
2017-11-28T00:57:39.966Z,99.90
2017-11-28T01:00:07.413Z,99.90
2017-11-28T01:02:34.881Z,99.90
2017-11-28T01:05:02.333Z,99.90
2017-11-28T01:07:29.812Z,99.90
2017-11-28T01:09:58.905Z,99.90
2017-11-28T01:12:27.144Z,99.90
2017-11-28T01:14:55.561Z,99.90
2017-11-28T01:17:23.806Z,99.90
2017-11-28T01:19:51.254Z,99.90
2017-11-28T01:22:18.700Z,99.90
2017-11-28T01:24:46.977Z,99.90
2017-11-28T01:27:14.436Z,99.90
2017-11-28T01:29:41.932Z,99.90
2017-11-28T01:32:11.026Z,99.90
2017-11-28T01:34:39.253Z,99.90
2017-11-28T01:37:06.769Z,99.90
2017-11-28T01:39:34.232Z,99.90
2017-11-28T01:42:02.495Z,99.90
2017-11-28T01:44:30.757Z,99.90
2017-11-28T01:46:59.749Z,99.90
2017-11-28T01:49:28.708Z,99.90
2017-11-28T01:51:56.162Z,99.90
2017-11-28T01:54:23.645Z,99.90
2017-11-28T01:56:51.097Z,99.90
2017-11-28T01:59:18.545Z,99.90
2017-11-28T02:01:46.009Z,99.90
2017-11-28T02:04:13.490Z,99.90
2017-11-28T02:06:41.741Z,99.90
2017-11-28T02:09:09.186Z,99.90
2017-11-28T02:11:36.866Z,99.90
2017-11-28T02:14:05.858Z,99.90
2017-11-28T02:16:34.821Z,99.90
2017-11-28T02:19:02.273Z,99.90
2017-11-28T02:21:29.752Z,99.90
2017-11-28T02:23:57.318Z,99.90
2017-11-28T02:26:25.578Z,99.90
2017-11-28T02:28:53.046Z,99.90
2017-11-28T02:31:21.281Z,99.90
2017-11-28T02:33:48.782Z,99.90
2017-11-28T02:36:17.753Z,99.90
2017-11-28T02:38:45.218Z,99.90
2017-11-28T02:41:15.391Z,99.90
2017-11-28T02:43:44.079Z,99.90
2017-11-28T02:46:11.783Z,99.90
2017-11-28T02:48:39.289Z,99.90
2017-11-28T02:51:11.329Z,99.90
2017-11-28T02:53:39.569Z,99.90
2017-11-28T02:56:18.761Z,99.90
2017-11-28T02:58:51.145Z,99.90
2017-11-28T03:01:26.329Z,99.90
2017-11-28T03:03:54.552Z,99.90
2017-11-28T03:06:22.004Z,99.90
2017-11-28T03:08:49.506Z,99.90
2017-11-28T03:11:17.841Z,99.90
2017-11-28T03:13:46.962Z,99.90
2017-11-28T03:16:25.305Z,99.90
2017-11-28T03:28:28.998Z,99.90
2017-11-28T03:31:06.367Z,99.90
2017-11-28T03:33:34.677Z,99.90
2017-11-28T03:36:02.129Z,99.90
2017-11-28T03:38:29.580Z,99.90
2017-11-28T03:40:57.045Z,99.90
2017-11-28T03:43:24.496Z,99.90
2017-11-28T03:46:09.805Z,99.90
2017-11-28T03:48:38.855Z,99.90
2017-11-28T03:51:06.773Z,99.90
2017-11-28T03:53:34.258Z,99.90
2017-11-28T03:56:02.325Z,99.90
2017-11-28T03:58:29.803Z,99.90
2017-11-28T04:00:57.273Z,99.90
2017-11-28T04:03:24.721Z,99.90
2017-11-28T04:05:52.193Z,99.90
2017-11-28T04:08:19.910Z,99.90
2017-11-28T04:10:48.912Z,99.90
2017-11-28T04:13:16.357Z,99.90
2017-11-28T04:15:45.553Z,99.90
2017-11-28T04:18:13.189Z,99.90
2017-11-28T04:20:40.636Z,99.90
2017-11-28T04:23:08.105Z,99.90
2017-11-28T04:25:36.332Z,99.90
2017-11-28T04:28:04.525Z,99.90
2017-11-28T04:30:31.989Z,99.90
2017-11-28T04:33:00.949Z,99.90
2017-11-28T04:35:28.420Z,99.90
2017-11-28T04:37:55.888Z,99.90
2017-11-28T04:40:24.100Z,99.90
2017-11-28T04:42:51.589Z,99.90
2017-11-28T04:45:19.077Z,99.90
2017-11-28T04:50:38.776Z,99.90
2017-11-28T04:53:07.049Z,99.90
2017-11-28T04:55:34.525Z,99.90
2017-11-28T04:58:03.193Z,99.90
2017-11-28T05:00:30.647Z,99.90
2017-11-28T05:02:58.216Z,99.90
2017-11-28T05:05:26.457Z,99.90
2017-11-28T05:07:53.926Z,99.90
2017-11-28T05:10:22.880Z,99.90
2017-11-28T05:12:50.365Z,99.90
2017-11-28T05:15:17.841Z,99.90
2017-11-28T05:17:45.293Z,99.90
2017-11-28T05:20:12.907Z,99.90
2017-11-28T05:22:40.396Z,99.90
2017-11-28T05:25:09.354Z,99.90
2017-11-28T05:27:36.846Z,99.90
2017-11-28T05:30:05.896Z,99.90
2017-11-28T05:32:33.341Z,99.90
2017-11-28T05:35:00.848Z,99.90
2017-11-28T05:37:29.184Z,99.90
2017-11-28T05:39:56.680Z,99.90
2017-11-28T05:42:24.152Z,99.90
2017-11-28T05:44:52.444Z,99.90
2017-11-28T05:47:20.686Z,99.90
2017-11-28T05:49:48.148Z,99.90
2017-11-28T05:52:17.109Z,99.90
2017-11-28T05:54:44.597Z,99.90
2017-11-28T05:57:12.081Z,99.90
2017-11-28T05:59:39.540Z,99.90
2017-11-28T06:02:07.754Z,99.90
2017-11-28T06:04:35.221Z,99.90
2017-11-28T06:07:02.692Z,99.90
2017-11-28T06:09:31.641Z,99.90
2017-11-28T06:11:59.125Z,99.90
2017-11-28T06:14:27.757Z,99.90
2017-11-28T06:16:55.211Z,99.90
2017-11-28T06:19:23.553Z,99.90
2017-11-28T06:21:51.014Z,99.90
2017-11-28T06:24:18.515Z,99.90
2017-11-28T06:26:45.981Z,99.90
2017-11-28T06:29:13.433Z,99.90
2017-11-28T06:31:41.770Z,99.90
2017-11-28T06:34:09.985Z,99.90
2017-11-28T06:36:37.492Z,99.90
2017-11-28T06:39:05.036Z,99.90
2017-11-28T06:41:32.601Z,99.90
2017-11-28T06:44:00.150Z,99.90
2017-11-28T06:46:29.152Z,99.90
2017-11-28T06:48:57.365Z,99.90
2017-11-28T06:51:24.873Z,99.90
2017-11-28T06:53:54.037Z,99.90
2017-11-28T06:56:21.486Z,99.90
2017-11-28T06:58:48.998Z,99.90
2017-11-28T07:01:17.257Z,99.90
2017-11-28T07:03:45.485Z,99.90
2017-11-28T07:06:12.963Z,99.90
2017-11-28T07:08:40.417Z,99.90
2017-11-28T07:11:07.869Z,99.90
2017-11-28T07:13:35.328Z,99.90
2017-11-28T07:16:03.981Z,99.90
2017-11-28T07:18:31.432Z,99.90
2017-11-28T07:20:58.972Z,99.90
2017-11-28T07:23:27.200Z,99.90
2017-11-28T07:25:56.637Z,99.90
2017-11-28T07:28:24.857Z,99.90
2017-11-28T07:30:53.565Z,99.90
2017-11-28T07:33:43.961Z,99.90
2017-11-28T07:36:11.440Z,99.90
2017-11-28T07:38:39.502Z,99.90
2017-11-28T07:41:07.713Z,99.90
2017-11-28T07:43:35.214Z,99.90
2017-11-28T07:46:02.821Z,99.90
2017-11-28T07:48:31.037Z,99.90
2017-11-28T07:50:59.286Z,99.90
2017-11-28T07:53:26.802Z,99.90
2017-11-28T07:55:54.252Z,99.90
2017-11-28T07:58:23.217Z,99.90
2017-11-28T08:00:50.748Z,99.90
2017-11-28T08:03:18.213Z,99.90
2017-11-28T08:05:45.668Z,99.60
2017-11-28T08:08:13.129Z,99.60
2017-11-28T08:10:40.709Z,99.20
2017-11-28T08:13:08.168Z,98.90
2017-11-28T08:15:36.385Z,98.90
2017-11-28T08:18:03.925Z,98.90
2017-11-28T08:20:31.382Z,99.50
2017-11-28T08:22:58.877Z,98.10
2017-11-28T08:25:26.338Z,98.40
2017-11-28T08:27:53.785Z,98.40
2017-11-28T08:30:21.281Z,98.10
2017-11-28T08:32:48.729Z,97.90
2017-11-28T08:38:07.289Z,97.50
2017-11-28T08:40:34.743Z,97.30
2017-11-28T08:43:02.197Z,96.90
2017-11-28T08:45:29.685Z,96.60
2017-11-28T08:47:57.135Z,96.70
2017-11-28T08:50:24.629Z,97.00
2017-11-28T08:52:52.684Z,97.50
2017-11-28T08:55:20.904Z,96.40
2017-11-28T08:57:48.370Z,96.40
2017-11-28T09:00:15.898Z,96.90
2017-11-28T09:02:43.413Z,96.30
2017-11-28T09:05:10.913Z,96.10
2017-11-28T09:07:38.365Z,96.20
2017-11-28T09:10:05.859Z,95.70
2017-11-28T09:12:33.793Z,96.00
2017-11-28T09:15:01.245Z,95.90
2017-11-28T09:17:29.397Z,95.50
2017-11-28T09:19:56.947Z,95.60
2017-11-28T09:22:25.184Z,94.80
2017-11-28T09:24:53.853Z,99.90
2017-11-28T09:27:21.293Z,99.90
2017-11-28T09:29:48.764Z,99.90
2017-11-28T09:32:16.237Z,96.80
2017-11-28T09:34:43.685Z,94.50
2017-11-28T09:37:11.162Z,94.70
2017-11-28T09:39:39.224Z,93.70
2017-11-28T09:42:06.735Z,94.20
2017-11-28T09:44:34.233Z,94.20
2017-11-28T09:47:01.821Z,94.10
2017-11-28T09:49:30.037Z,94.60
2017-11-28T09:51:58.373Z,94.50
2017-11-28T09:54:26.585Z,93.60
2017-11-28T09:56:54.032Z,93.70
2017-11-28T09:59:21.508Z,93.90
2017-11-28T10:01:48.982Z,94.60
2017-11-28T10:04:16.436Z,94.10
2017-11-28T10:06:46.325Z,93.50
2017-11-28T10:09:14.387Z,93.50
2017-11-28T10:11:41.837Z,93.60
2017-11-28T10:14:09.441Z,93.70
2017-11-28T10:16:36.988Z,93.30
2017-11-28T10:19:05.945Z,92.90
2017-11-28T10:21:33.600Z,92.90
2017-11-28T10:24:01.077Z,92.70
2017-11-28T10:26:28.557Z,92.70
2017-11-28T10:28:56.025Z,93.40
2017-11-28T10:31:24.248Z,93.20
2017-11-28T10:33:52.208Z,93.10
2017-11-28T10:36:19.697Z,93.10
2017-11-28T10:38:47.145Z,92.90
2017-11-28T10:41:15.289Z,93.30
2017-11-28T10:43:42.753Z,93.30
2017-11-28T10:46:10.205Z,93.10
2017-11-28T10:48:37.708Z,93.20
2017-11-28T10:51:06.241Z,93.60
2017-11-28T10:53:33.711Z,93.60
2017-11-28T10:56:01.977Z,93.40
2017-11-28T10:58:29.449Z,93.80
2017-11-28T11:00:56.981Z,93.60
2017-11-28T11:03:24.481Z,93.60
2017-11-28T11:05:52.725Z,93.70
2017-11-28T11:08:20.208Z,94.10
2017-11-28T11:10:49.216Z,93.50
2017-11-28T11:13:16.699Z,93.40
2017-11-28T11:15:44.144Z,93.60
2017-11-28T11:18:13.310Z,93.70
2017-11-28T11:20:40.790Z,93.70
2017-11-28T11:23:09.008Z,94.00
2017-11-28T11:25:36.463Z,94.00
2017-11-28T11:28:03.930Z,94.10
2017-11-28T11:30:31.394Z,93.70
2017-11-28T11:32:58.842Z,93.80
2017-11-28T11:35:26.316Z,94.60
2017-11-28T11:37:54.557Z,94.50
2017-11-28T11:40:22.018Z,94.40
2017-11-28T11:42:49.486Z,94.60
2017-11-28T11:45:16.941Z,94.90
2017-11-28T11:47:45.261Z,95.20
2017-11-28T11:50:13.490Z,96.10
2017-11-28T11:52:40.942Z,96.00
2017-11-28T11:55:08.463Z,95.90
2017-11-28T11:57:35.977Z,96.00
2017-11-28T12:00:04.667Z,95.60
2017-11-28T12:02:32.133Z,95.70
2017-11-28T12:05:00.380Z,96.20
2017-11-28T12:07:29.090Z,96.10
2017-11-28T12:09:56.536Z,95.90
2017-11-28T12:12:24.806Z,96.20
2017-11-28T12:14:52.298Z,96.50
2017-11-28T12:17:19.756Z,96.70
2017-11-28T12:19:47.214Z,96.80
2017-11-28T12:22:14.685Z,96.90
2017-11-28T12:24:43.157Z,97.00
2017-11-28T12:30:01.788Z,97.30
2017-11-28T12:32:30.581Z,97.70
2017-11-28T12:34:58.826Z,97.60
2017-11-28T12:37:26.338Z,97.50
2017-11-28T12:39:53.793Z,97.50
2017-11-28T12:42:22.876Z,97.30
2017-11-28T12:44:51.216Z,97.80
2017-11-28T12:47:20.061Z,97.50
2017-11-28T12:49:47.619Z,97.50
2017-11-28T12:52:15.082Z,97.40
2017-11-28T12:54:42.533Z,97.40
2017-11-28T12:57:10.006Z,97.20
2017-11-28T12:59:37.514Z,97.40
2017-11-28T13:02:05.767Z,96.90
2017-11-28T13:04:33.338Z,96.90
2017-11-28T13:07:01.649Z,96.50
2017-11-28T13:09:29.161Z,96.50
2017-11-28T13:11:57.436Z,96.80
2017-11-28T13:14:24.988Z,96.70
2017-11-28T13:16:52.549Z,96.40
2017-11-28T13:19:20.097Z,96.80
2017-11-28T13:21:47.561Z,96.70
2017-11-28T13:24:15.101Z,96.80
2017-11-28T13:26:42.551Z,96.80
2017-11-28T13:29:10.027Z,96.80
2017-11-28T13:31:37.593Z,97.10
2017-11-28T13:34:05.049Z,96.70
2017-11-28T13:36:33.997Z,96.80
2017-11-28T13:39:02.318Z,96.80
2017-11-28T13:41:29.781Z,96.80
2017-11-28T13:43:58.013Z,96.70
2017-11-28T13:46:26.229Z,96.60
2017-11-28T13:48:54.503Z,96.80
2017-11-28T13:51:23.944Z,97.10
2017-11-28T13:53:51.390Z,97.10
2017-11-28T13:56:18.872Z,96.80
2017-11-28T13:58:46.336Z,96.90
2017-11-28T14:01:15.685Z,96.80
2017-11-28T14:03:43.241Z,96.90
2017-11-28T14:06:11.452Z,97.40
2017-11-28T14:08:38.905Z,97.40
2017-11-28T14:11:07.232Z,97.30
2017-11-28T14:13:35.444Z,97.50
2017-11-28T14:16:02.900Z,97.50
2017-11-28T14:18:30.378Z,97.20
2017-11-28T14:24:14.661Z,97.30
2017-11-28T14:26:47.730Z,98.10
2017-11-28T14:29:31.184Z,98.50
2017-11-28T14:35:03.159Z,98.50
2017-11-28T14:37:30.606Z,98.90
2017-11-28T14:39:58.065Z,99.00
2017-11-28T14:42:28.496Z,99.20
2017-11-28T14:45:10.857Z,99.40
2017-11-28T14:47:38.306Z,99.90
2017-11-28T14:50:05.763Z,99.90
2017-11-28T14:52:34.035Z,99.90
2017-11-28T14:55:07.265Z,99.90
2017-11-28T14:57:35.361Z,99.90
2017-11-28T15:00:09.341Z,99.90
2017-11-28T15:02:42.530Z,99.90
2017-11-28T15:05:15.625Z,99.90
2017-11-28T15:07:48.796Z,99.90
2017-11-28T15:13:40.711Z,99.90
2017-11-28T15:16:12.545Z,99.90
2017-11-28T15:22:14.127Z,99.90
2017-11-28T15:27:47.165Z,99.90
2017-11-28T15:30:14.637Z,99.90
2017-11-28T15:32:42.081Z,99.90
2017-11-28T15:35:09.533Z,99.90
2017-11-28T15:37:37.011Z,99.90
2017-11-28T15:40:05.121Z,99.90
2017-11-28T15:42:33.346Z,99.90
2017-11-28T15:45:00.826Z,99.90
2017-11-28T15:47:28.273Z,99.90
2017-11-28T15:49:57.428Z,99.90
2017-11-28T15:52:24.892Z,99.90
2017-11-28T15:54:52.363Z,99.90
2017-11-28T15:57:19.853Z,99.90
2017-11-28T15:59:47.297Z,99.90
2017-11-28T16:02:15.989Z,99.90
2017-11-28T16:04:44.111Z,99.90
2017-11-28T16:07:11.557Z,99.90
2017-11-28T16:09:39.029Z,99.90
2017-11-28T16:12:06.558Z,99.90
2017-11-28T16:14:34.770Z,99.90
2017-11-28T16:17:02.325Z,99.90
2017-11-28T16:19:29.793Z,99.90
2017-11-28T16:21:57.245Z,99.90
2017-11-28T16:24:24.713Z,99.90
2017-11-28T16:26:52.165Z,99.90
2017-11-28T16:29:19.637Z,99.90
2017-11-28T16:31:47.850Z,99.90
2017-11-28T16:34:15.329Z,99.90
2017-11-28T16:36:43.712Z,99.90
2017-11-28T16:39:11.481Z,99.90
2017-11-28T16:41:38.949Z,99.90
2017-11-28T16:44:06.397Z,99.90
2017-11-28T16:46:33.849Z,99.90
2017-11-28T16:49:02.181Z,99.90
2017-11-28T16:51:29.773Z,99.90
2017-11-28T16:53:57.343Z,99.90
2017-11-28T16:56:25.021Z,99.90
2017-11-28T16:58:52.485Z,99.90
2017-11-28T17:01:20.744Z,99.90
2017-11-28T17:03:49.698Z,99.90
2017-11-28T17:06:17.153Z,99.90
2017-11-28T17:08:44.620Z,99.90
2017-11-28T17:11:12.157Z,99.90
2017-11-28T17:13:40.412Z,99.90
2017-11-28T17:16:08.670Z,99.90
2017-11-28T17:18:36.889Z,99.90
2017-11-28T17:21:04.394Z,99.90
2017-11-28T17:23:31.943Z,99.90
2017-11-28T17:25:59.397Z,99.90
2017-11-28T17:28:26.861Z,99.90
2017-11-28T17:30:55.131Z,99.90
2017-11-28T17:33:22.613Z,99.90
2017-11-28T17:35:50.064Z,99.90
2017-11-28T17:38:18.566Z,99.90
2017-11-28T17:40:46.077Z,99.90
2017-11-28T17:43:13.638Z,99.90
2017-11-28T17:45:41.096Z,99.90
2017-11-28T17:48:09.075Z,99.90
2017-11-28T17:50:37.845Z,99.90
2017-11-28T17:53:05.358Z,99.90
2017-11-28T17:55:33.656Z,99.90
2017-11-28T17:58:01.893Z,99.90
2017-11-28T18:00:29.357Z,99.90
2017-11-28T18:02:56.906Z,99.90
2017-11-28T18:05:24.361Z,99.90
2017-11-28T18:07:51.813Z,99.90
2017-11-28T18:10:19.313Z,99.90
2017-11-28T18:12:46.784Z,99.90
2017-11-28T18:15:16.482Z,99.90
2017-11-28T18:17:44.947Z,99.90
2017-11-28T18:20:12.445Z,99.90
2017-11-28T18:22:40.698Z,99.90
2017-11-28T18:25:09.697Z,99.90
2017-11-28T18:27:37.689Z,99.90
2017-11-28T18:30:05.965Z,99.90
2017-11-28T18:32:34.177Z,99.90
2017-11-28T18:35:01.641Z,99.90
2017-11-28T18:37:29.138Z,99.90
2017-11-28T18:39:57.349Z,99.90
2017-11-28T18:42:24.809Z,99.90
2017-11-28T18:44:52.277Z,99.90
2017-11-28T18:47:19.773Z,99.90
2017-11-28T18:49:47.250Z,99.90
2017-11-28T18:52:14.776Z,99.90
2017-11-28T18:54:42.237Z,99.90
2017-11-28T18:57:09.705Z,99.90
2017-11-28T18:59:37.960Z,99.90
2017-11-28T19:02:05.429Z,99.90
2017-11-28T19:04:33.656Z,99.90
2017-11-28T19:07:01.105Z,99.90
2017-11-28T19:09:28.563Z,99.90
2017-11-28T19:11:56.037Z,99.90
2017-11-28T19:14:23.509Z,99.90
2017-11-28T19:16:52.465Z,99.90
2017-11-28T19:19:20.011Z,99.90
2017-11-28T19:21:47.501Z,99.90
2017-11-28T19:24:14.980Z,99.90
2017-11-28T19:26:42.437Z,99.90
2017-11-28T19:29:09.993Z,99.90
2017-11-28T19:31:38.296Z,99.90
2017-11-28T19:34:05.757Z,99.90
2017-11-28T19:36:33.204Z,99.90
2017-11-28T19:39:00.685Z,99.90
2017-11-28T19:41:28.145Z,99.90
2017-11-28T19:43:55.596Z,99.90
2017-11-28T19:46:23.052Z,99.90
2017-11-28T19:48:50.508Z,99.90
2017-11-28T19:51:17.961Z,99.90
2017-11-28T19:53:47.581Z,99.90
2017-11-28T19:56:15.825Z,99.90
2017-11-28T19:58:43.297Z,99.90
2017-11-28T20:01:10.771Z,99.90
2017-11-28T20:03:38.217Z,99.90
2017-11-28T20:06:06.010Z,99.90
2017-11-28T20:08:34.286Z,99.90
2017-11-28T20:11:01.736Z,99.90
2017-11-28T20:13:30.711Z,99.90
2017-11-28T20:15:58.165Z,99.90
2017-11-28T20:18:25.613Z,99.90
2017-11-28T20:20:53.980Z,99.90
2017-11-28T20:23:21.472Z,99.90
2017-11-28T20:25:48.931Z,99.90
2017-11-28T20:28:17.901Z,99.90
2017-11-28T20:30:45.353Z,99.90
2017-11-28T20:33:12.865Z,99.90
2017-11-28T20:35:41.128Z,99.90
2017-11-28T20:38:09.344Z,99.90
2017-11-28T20:40:36.800Z,99.90
2017-11-28T20:43:04.304Z,99.90
2017-11-28T20:45:31.754Z,99.90
2017-11-28T20:47:59.214Z,99.90
2017-11-28T20:50:26.695Z,99.90
2017-11-28T20:52:54.937Z,99.90
2017-11-28T20:55:22.385Z,99.90
2017-11-28T20:57:51.360Z,99.90
2017-11-28T21:00:18.818Z,99.90
2017-11-28T21:02:46.317Z,99.90
2017-11-28T21:05:13.751Z,99.90
2017-11-28T21:07:41.961Z,99.90
2017-11-28T21:10:09.474Z,99.90
2017-11-28T21:12:37.748Z,99.90
2017-11-28T21:15:05.205Z,99.90
2017-11-28T21:17:33.584Z,99.90
2017-11-28T21:20:02.574Z,99.90
2017-11-28T21:22:30.025Z,99.90
2017-11-28T21:24:57.585Z,99.90
2017-11-28T21:27:25.820Z,99.90
2017-11-28T21:29:53.285Z,99.90
2017-11-28T21:32:20.761Z,99.90
2017-11-28T21:34:48.209Z,99.90
2017-11-28T21:37:16.621Z,99.90
2017-11-28T21:39:44.069Z,99.90
2017-11-28T21:42:12.415Z,99.90
2017-11-28T21:44:39.895Z,99.90
2017-11-28T21:47:07.346Z,99.90
2017-11-28T21:49:36.316Z,99.90
2017-11-28T21:52:04.349Z,99.90
2017-11-28T21:54:33.048Z,99.90
2017-11-28T21:57:01.374Z,99.90
2017-11-28T21:59:28.837Z,99.90
2017-11-28T22:01:56.301Z,99.90
2017-11-28T22:04:24.521Z,99.90
2017-11-28T22:06:52.993Z,99.90
2017-11-28T22:09:20.653Z,99.90
2017-11-28T22:11:49.133Z,99.90
2017-11-28T22:14:16.591Z,99.90
2017-11-28T22:16:44.053Z,99.90
2017-11-28T22:19:11.505Z,99.90
2017-11-28T22:21:38.965Z,99.90
2017-11-28T22:24:06.451Z,99.90
2017-11-28T22:26:33.897Z,99.90
2017-11-28T22:29:01.348Z,99.90
2017-11-28T22:31:28.826Z,99.90
2017-11-28T22:33:56.281Z,99.90
2017-11-28T22:36:24.506Z,99.90
2017-11-28T22:38:52.584Z,99.90
2017-11-28T22:41:20.037Z,99.90
2017-11-28T22:43:47.530Z,99.90
2017-11-28T22:46:15.750Z,99.90
2017-11-28T22:48:43.201Z,99.90
2017-11-28T22:51:10.669Z,99.90
2017-11-28T22:53:38.132Z,99.90
2017-11-28T22:56:05.593Z,99.90
2017-11-28T22:58:33.077Z,99.90
2017-11-28T23:01:00.538Z,99.90
2017-11-28T23:03:28.756Z,99.90
2017-11-28T23:05:56.232Z,99.90
2017-11-28T23:08:23.688Z,99.90
2017-11-28T23:10:51.137Z,99.90
2017-11-28T23:13:18.632Z,99.90
2017-11-28T23:15:46.875Z,99.90
2017-11-28T23:18:14.369Z,99.90
2017-11-28T23:20:41.930Z,99.90
2017-11-28T23:23:10.145Z,99.90
2017-11-28T23:25:37.656Z,99.90
2017-11-28T23:28:05.886Z,99.90
2017-11-28T23:30:33.347Z,99.90
2017-11-28T23:33:00.795Z,99.90
2017-11-28T23:35:28.261Z,99.90
2017-11-28T23:37:55.737Z,99.90
2017-11-28T23:40:23.223Z,99.90
2017-11-28T23:42:51.441Z,99.90
2017-11-28T23:45:18.895Z,99.90
2017-11-28T23:47:46.373Z,99.90
2017-11-28T23:50:13.834Z,99.90
2017-11-28T23:52:41.356Z,99.90
2017-11-28T23:55:09.685Z,99.90
2017-11-28T23:57:37.238Z,99.90
